首页
METAR-TAF:

METAR-TAF

机场 :

Regional_Airport

拉斯顿, 路易斯安那州, 美国

纬度: 32-30-52N, 经度: 092-35-18W, 海拔: 95米

当前天气观测

该预报发布于26分钟前的03:15 UTC
风速4节,风向南转南东
温度 14°C
湿度 88%
气压 1017 hPa
能見度: 16.1公里
阴天层高于1200英尺

METAR: KRSN 170315Z AUTO 16004KT 10SM OVC012 14/12 A3003 RMK AO2 T01430115

时间: 21:41 (03:41 UTC)


TAF: 丢失

超过4000个机场的气象观测和天气预报(METAR&TAF报告)。

可查询的气象台以黄色和红色小点在地图上表示。

将鼠标移到小点上方,可查看气象台名称。

然后点击查看天气观测和预报。

如需切换地图:点击带黑十字的绿色按钮放大地图;点击带横线的绿色按钮缩小地图;或者点击绿色箭头查看邻近地区的地图。


METAR-TAF: